Time,TemperatureF,DewpointF,PressureIn,WindDirection,WindDirectionDegrees,WindSpeedMPH,WindSpeedGustMPH,Humidity,HourlyPrecipIn,Conditions,Clouds,dailyrainin,SoftwareType,DateUTC
2013-05-03 00:00:00,52.4,50.4,30.27,West,273,0.0,0.0,93,0.00,,,0.01,Wunderground v.1.15,2013-05-03 04:00:00,
2013-05-03 00:10:00,52.3,50.3,30.27,West,273,0.0,0.0,93,0.00,,,0.00,Wunderground v.1.15,2013-05-03 04:10:00,
2013-05-03 00:20:00,52.4,50.4,30.27,West,273,0.0,0.0,93,0.00,,,0.00,Wunderground v.1.15,2013-05-03 04:20:00,
2013-05-03 00:30:00,52.3,50.3,30.26,West,273,0.0,0.0,93,0.00,,,0.00,Wunderground v.1.15,2013-05-03 04:30:00,
2013-05-03 00:40:00,52.2,50.2,30.26,West,273,0.0,0.0,93,0.00,,,0.00,Wunderground v.1.15,2013-05-03 04:40:00,
2013-05-03 00:50:00,52.1,50.1,30.26,West,273,0.0,0.0,93,0.00,,,0.00,Wunderground v.1.15,2013-05-03 04:50:00,
2013-05-03 01:00:00,51.9,49.9,30.26,West,273,0.0,0.0,93,0.00,,,0.00,Wunderground v.1.15,2013-05-03 05:00:00,
2013-05-03 01:10:00,51.7,49.7,30.26,West,273,0.0,0.0,93,0.00,,,0.00,Wunderground v.1.15,2013-05-03 05:10:00,
2013-05-03 01:20:00,51.5,49.5,30.26,West,273,0.0,0.0,93,0.00,,,0.00,Wunderground v.1.15,2013-05-03 05:20:00,
2013-05-03 01:30:00,51.3,49.3,30.26,West,273,0.0,0.0,93,0.00,,,0.00,Wunderground v.1.15,2013-05-03 05:30:00,
2013-05-03 01:40:00,51.1,49.1,30.26,West,273,0.0,0.0,93,0.00,,,0.00,Wunderground v.1.15,2013-05-03 05:40:00,
2013-05-03 01:50:00,50.9,48.9,30.26,West,273,0.0,0.0,93,0.00,,,0.00,Wunderground v.1.15,2013-05-03 05:50:00,
2013-05-03 02:00:00,50.7,48.7,30.25,West,273,0.0,0.0,93,0.00,,,0.00,Wunderground v.1.15,2013-05-03 06:00:00,
2013-05-03 02:10:00,50.5,48.6,30.25,West,273,0.0,0.0,93,0.00,,,0.00,Wunderground v.1.15,2013-05-03 06:10:00,
2013-05-03 02:20:00,50.3,48.4,30.25,West,273,0.0,0.0,93,0.00,,,0.00,Wunderground v.1.15,2013-05-03 06:20:00,
2013-05-03 02:30:00,50.0,48.1,30.25,West,273,0.0,0.0,93,0.00,,,0.00,Wunderground v.1.15,2013-05-03 06:30:00,
2013-05-03 02:40:00,49.8,47.9,30.24,West,273,0.0,0.0,93,0.00,,,0.00,Wunderground v.1.15,2013-05-03 06:40:00,
2013-05-03 02:50:00,49.6,47.7,30.24,West,273,0.0,0.0,93,0.00,,,0.00,Wunderground v.1.15,2013-05-03 06:50:00,
2013-05-03 03:00:00,49.4,47.5,30.24,West,273,0.0,0.0,93,0.00,,,0.00,Wunderground v.1.15,2013-05-03 07:00:00,
2013-05-03 03:10:00,49.2,47.3,30.24,West,273,0.0,0.0,93,0.00,,,0.00,Wunderground v.1.15,2013-05-03 07:10:00,
2013-05-03 03:20:00,49.2,47.3,30.24,West,273,0.0,0.0,93,0.00,,,0.00,Wunderground v.1.15,2013-05-03 07:20:00,
2013-05-03 03:30:00,49.0,47.1,30.24,West,273,0.0,0.0,93,0.00,,,0.00,Wunderground v.1.15,2013-05-03 07:30:00,
2013-05-03 03:40:00,48.8,46.9,30.24,West,273,0.0,0.0,93,0.00,,,0.00,Wunderground v.1.15,2013-05-03 07:40:00,
2013-05-03 03:50:00,48.6,46.7,30.24,West,273,0.0,0.0,93,0.00,,,0.00,Wunderground v.1.15,2013-05-03 07:50:00,
2013-05-03 04:00:00,48.5,46.6,30.24,West,273,0.0,0.0,93,0.00,,,0.00,Wunderground v.1.15,2013-05-03 08:00:00,
2013-05-03 04:10:00,48.4,46.5,30.23,West,273,0.0,0.0,93,0.00,,,0.00,Wunderground v.1.15,2013-05-03 08:10:00,
2013-05-03 04:20:00,48.4,46.5,30.23,West,273,0.0,0.0,93,0.00,,,0.00,Wunderground v.1.15,2013-05-03 08:20:00,
2013-05-03 04:30:00,48.3,46.7,30.23,West,273,0.0,0.0,94,0.00,,,0.00,Wunderground v.1.15,2013-05-03 08:30:00,
2013-05-03 04:40:00,48.3,46.7,30.23,West,273,0.0,0.0,94,0.00,,,0.00,Wunderground v.1.15,2013-05-03 08:40:00,
2013-05-03 04:50:00,48.2,46.6,30.23,West,273,0.0,0.0,94,0.00,,,0.00,Wunderground v.1.15,2013-05-03 08:50:00,
2013-05-03 05:00:00,48.1,46.2,30.23,West,273,0.0,0.0,93,0.00,,,0.00,Wunderground v.1.15,2013-05-03 09:00:00,
2013-05-03 05:10:00,48.0,46.4,30.23,West,273,0.0,0.0,94,0.00,,,0.00,Wunderground v.1.15,2013-05-03 09:10:00,
2013-05-03 05:20:00,48.0,46.4,30.23,West,273,0.0,0.0,94,0.00,,,0.00,Wunderground v.1.15,2013-05-03 09:20:00,
2013-05-03 05:30:00,47.9,46.3,30.24,West,273,0.0,0.0,94,0.00,,,0.00,Wunderground v.1.15,2013-05-03 09:30:00,
2013-05-03 05:40:00,47.9,46.3,30.24,West,273,0.0,0.0,94,0.00,,,0.00,Wunderground v.1.15,2013-05-03 09:40:00,
2013-05-03 05:50:00,47.9,46.3,30.24,West,273,0.0,0.0,94,0.00,,,0.00,Wunderground v.1.15,2013-05-03 09:50:00,
2013-05-03 06:00:00,47.8,46.2,30.24,West,273,0.0,0.0,94,0.00,,,0.00,Wunderground v.1.15,2013-05-03 10:00:00,
2013-05-03 06:10:00,47.6,45.7,30.24,West,273,0.0,0.0,93,0.00,,,0.00,Wunderground v.1.15,2013-05-03 10:10:00,
2013-05-03 06:20:00,47.4,45.5,30.24,NNW,348,0.0,0.0,93,0.00,,,0.00,Wunderground v.1.15,2013-05-03 10:20:00,
2013-05-03 06:30:00,47.2,45.6,30.24,NNW,348,0.0,0.0,94,0.00,,,0.00,Wunderground v.1.15,2013-05-03 10:30:00,
2013-05-03 06:40:00,47.0,45.4,30.24,NNW,348,0.0,0.0,94,0.00,,,0.00,Wunderground v.1.15,2013-05-03 10:40:00,
2013-05-03 06:50:00,46.8,45.2,30.25,NNW,348,0.0,0.0,94,0.00,,,0.00,Wunderground v.1.15,2013-05-03 10:50:00,
2013-05-03 07:00:00,46.8,45.2,30.25,NNW,332,0.0,0.0,94,0.00,,,0.00,Wunderground v.1.15,2013-05-03 11:00:00,
2013-05-03 07:10:00,46.9,45.3,30.25,NNW,331,0.0,0.0,94,0.00,,,0.00,Wunderground v.1.15,2013-05-03 11:10:00,
2013-05-03 07:20:00,47.1,45.5,30.25,NNW,331,0.0,0.0,94,0.00,,,0.00,Wunderground v.1.15,2013-05-03 11:20:00,
2013-05-03 07:30:00,47.5,45.9,30.26,West,281,0.0,0.0,94,0.00,,,0.00,Wunderground v.1.15,2013-05-03 11:30:00,
2013-05-03 07:40:00,47.8,46.2,30.26,West,281,0.0,0.0,94,0.00,,,0.00,Wunderground v.1.15,2013-05-03 11:40:00,
2013-05-03 07:50:00,48.2,46.6,30.26,West,278,0.0,0.0,94,0.00,,,0.00,Wunderground v.1.15,2013-05-03 11:50:00,
2013-05-03 08:00:00,48.7,47.1,30.26,West,278,0.0,0.0,94,0.00,,,0.00,Wunderground v.1.15,2013-05-03 12:00:00,
2013-05-03 08:10:00,49.4,47.7,30.26,WNW,295,0.0,0.0,94,0.00,,,0.00,Wunderground v.1.15,2013-05-03 12:10:00,
2013-05-03 08:20:00,50.0,48.3,30.27,WNW,286,0.0,0.0,94,0.00,,,0.00,Wunderground v.1.15,2013-05-03 12:20:00,
2013-05-03 08:30:00,50.8,49.1,30.26,SSE,149,0.0,0.0,94,0.00,,,0.00,Wunderground v.1.15,2013-05-03 12:30:00,
2013-05-03 08:40:00,51.6,49.6,30.27,NW,317,1.0,1.0,93,0.00,,,0.00,Wunderground v.1.15,2013-05-03 12:40:00,
2013-05-03 08:50:00,52.6,50.6,30.27,WSW,249,1.0,1.0,93,0.00,,,0.00,Wunderground v.1.15,2013-05-03 12:50:00,
2013-05-03 09:00:00,53.7,51.4,30.27,West,270,1.0,1.0,92,0.00,,,0.00,Wunderground v.1.15,2013-05-03 13:00:00,
2013-05-03 09:10:00,54.5,51.6,30.27,WSW,239,1.0,1.0,90,0.00,,,0.00,Wunderground v.1.15,2013-05-03 13:10:00,
2013-05-03 09:20:00,55.3,52.4,30.26,WNW,296,1.0,1.0,90,0.00,,,0.00,Wunderground v.1.15,2013-05-03 13:20:00,
2013-05-03 09:30:00,56.3,53.1,30.26,WSW,249,1.0,1.0,89,0.00,,,0.00,Wunderground v.1.15,2013-05-03 13:30:00,
2013-05-03 09:40:00,57.5,54.0,30.27,West,281,1.0,1.0,88,0.00,,,0.00,Wunderground v.1.15,2013-05-03 13:40:00,
2013-05-03 09:50:00,58.5,54.3,30.27,ENE,77,1.0,1.0,86,0.00,,,0.00,Wunderground v.1.15,2013-05-03 13:50:00,
2013-05-03 10:00:00,58.3,53.8,30.27,West,274,1.0,1.0,85,0.00,,,0.00,Wunderground v.1.15,2013-05-03 14:00:00,
2013-05-03 10:10:00,58.4,53.6,30.27,ESE,122,1.0,1.0,84,0.00,,,0.00,Wunderground v.1.15,2013-05-03 14:10:00,
2013-05-03 10:20:00,59.0,54.5,30.27,NW,315,1.0,1.0,85,0.00,,,0.00,Wunderground v.1.15,2013-05-03 14:20:00,
2013-05-03 10:30:00,59.0,54.2,30.27,SW,236,1.0,2.0,84,0.00,,,0.00,Wunderground v.1.15,2013-05-03 14:30:00,
2013-05-03 10:40:00,58.6,53.8,30.27,ENE,57,1.0,1.0,84,0.00,,,0.00,Wunderground v.1.15,2013-05-03 14:40:00,
2013-05-03 10:50:00,58.7,53.9,30.27,West,272,1.0,1.0,84,0.00,,,0.00,Wunderground v.1.15,2013-05-03 14:50:00,
2013-05-03 11:00:00,59.0,54.2,30.27,North,360,1.0,1.0,84,0.00,,,0.00,Wunderground v.1.15,2013-05-03 15:00:00,
2013-05-03 11:10:00,59.3,54.5,30.28,South,187,1.0,4.0,84,0.00,,,0.00,Wunderground v.1.15,2013-05-03 15:10:00,
2013-05-03 11:20:00,60.3,55.1,30.28,West,280,1.0,3.0,83,0.00,,,0.00,Wunderground v.1.15,2013-05-03 15:20:00,
2013-05-03 11:30:00,60.4,54.5,30.28,WNW,295,2.0,2.0,81,0.00,,,0.00,Wunderground v.1.15,2013-05-03 15:30:00,
2013-05-03 11:40:00,59.4,53.6,30.28,SW,230,1.0,1.0,81,0.00,,,0.00,Wunderground v.1.15,2013-05-03 15:40:00,
2013-05-03 11:50:00,60.1,54.6,30.28,WNW,286,1.0,1.0,82,0.00,,,0.00,Wunderground v.1.15,2013-05-03 15:50:00,
2013-05-03 12:00:00,59.9,54.1,30.28,NW,320,2.0,2.0,81,0.00,,,0.00,Wunderground v.1.15,2013-05-03 16:00:00,
2013-05-03 12:10:00,61.3,55.1,30.27,NW,311,1.0,4.0,80,0.00,,,0.00,Wunderground v.1.15,2013-05-03 16:10:00,
2013-05-03 12:20:00,61.5,54.9,30.27,NW,304,2.0,3.0,79,0.00,,,0.00,Wunderground v.1.15,2013-05-03 16:20:00,
2013-05-03 12:30:00,61.4,54.8,30.27,SW,225,1.0,2.0,79,0.00,,,0.00,Wunderground v.1.15,2013-05-03 16:30:00,
2013-05-03 12:40:00,62.7,55.7,30.26,South,176,1.0,2.0,78,0.00,,,0.00,Wunderground v.1.15,2013-05-03 16:40:00,
2013-05-03 12:50:00,63.3,56.0,30.25,North,9,2.0,2.0,77,0.00,,,0.00,Wunderground v.1.15,2013-05-03 16:50:00,
2013-05-03 13:00:00,64.3,56.2,30.25,West,263,2.0,2.0,75,0.00,,,0.00,Wunderground v.1.15,2013-05-03 17:00:00,
2013-05-03 13:10:00,64.5,56.0,30.25,SSW,208,1.0,1.0,74,0.00,,,0.00,Wunderground v.1.15,2013-05-03 17:10:00,
2013-05-03 13:20:00,64.0,54.8,30.25,NW,319,2.0,3.0,72,0.00,,,0.00,Wunderground v.1.15,2013-05-03 17:20:00,
2013-05-03 13:30:00,64.1,56.0,30.24,SSW,212,2.0,2.0,75,0.00,,,0.00,Wunderground v.1.15,2013-05-03 17:30:00,
2013-05-03 13:40:00,65.2,56.3,30.24,SSE,163,1.0,2.0,73,0.00,,,0.00,Wunderground v.1.15,2013-05-03 17:40:00,
2013-05-03 13:50:00,65.9,56.2,30.23,NNW,334,2.0,2.0,71,0.00,,,0.00,Wunderground v.1.15,2013-05-03 17:50:00,
2013-05-03 14:00:00,65.1,55.5,30.23,WNW,295,2.0,2.0,71,0.00,,,0.00,Wunderground v.1.15,2013-05-03 18:00:00,
2013-05-03 14:10:00,65.1,55.1,30.23,West,271,1.0,1.0,70,0.00,,,0.00,Wunderground v.1.15,2013-05-03 18:10:00,
2013-05-03 14:20:00,66.2,56.1,30.23,NW,309,2.0,2.0,70,0.00,,,0.00,Wunderground v.1.15,2013-05-03 18:20:00,
2013-05-03 14:30:00,66.8,56.3,30.22,SSW,211,1.0,1.0,69,0.00,,,0.00,Wunderground v.1.15,2013-05-03 18:30:00,
2013-05-03 14:40:00,66.1,56.0,30.22,West,271,1.0,1.0,70,0.00,,,0.00,Wunderground v.1.15,2013-05-03 18:40:00,
2013-05-03 14:50:00,66.5,56.0,30.21,WNW,300,1.0,1.0,69,0.00,,,0.00,Wunderground v.1.15,2013-05-03 18:50:00,
2013-05-03 15:00:00,66.6,55.3,30.21,SSE,166,1.0,2.0,67,0.00,,,0.00,Wunderground v.1.15,2013-05-03 19:00:00,
2013-05-03 15:10:00,66.5,55.6,30.21,WNW,301,1.0,2.0,68,0.00,,,0.00,Wunderground v.1.15,2013-05-03 19:10:00,
2013-05-03 15:20:00,66.3,55.0,30.21,NE,36,1.0,1.0,67,0.00,,,0.00,Wunderground v.1.15,2013-05-03 19:20:00,
2013-05-03 15:30:00,66.5,55.6,30.20,SE,138,1.0,2.0,68,0.00,,,0.00,Wunderground v.1.15,2013-05-03 19:30:00,
2013-05-03 15:40:00,66.4,55.9,30.20,West,279,1.0,1.0,69,0.00,,,0.00,Wunderground v.1.15,2013-05-03 19:40:00,
2013-05-03 15:50:00,66.1,55.6,30.20,WSW,240,1.0,1.0,69,0.00,,,0.00,Wunderground v.1.15,2013-05-03 19:50:00,
2013-05-03 16:00:00,66.3,55.4,30.19,NW,319,1.0,1.0,68,0.00,,,0.00,Wunderground v.1.15,2013-05-03 20:00:00,
2013-05-03 16:10:00,66.4,55.5,30.19,WNW,297,1.0,1.0,68,0.00,,,0.00,Wunderground v.1.15,2013-05-03 20:10:00,
2013-05-03 16:20:00,66.6,55.7,30.18,SSW,202,1.0,1.0,68,0.00,,,0.00,Wunderground v.1.15,2013-05-03 20:20:00,
2013-05-03 16:30:00,66.5,54.8,30.18,SSW,205,1.0,1.0,66,0.00,,,0.00,Wunderground v.1.15,2013-05-03 20:30:00,
2013-05-03 16:40:00,66.7,56.2,30.18,WSW,246,0.0,0.0,69,0.00,,,0.00,Wunderground v.1.15,2013-05-03 20:40:00,
2013-05-03 16:50:00,66.4,55.5,30.18,West,277,1.0,1.0,68,0.00,,,0.00,Wunderground v.1.15,2013-05-03 20:50:00,
2013-05-03 17:00:00,66.2,54.9,30.18,WNW,302,1.0,1.0,67,0.00,,,0.00,Wunderground v.1.15,2013-05-03 21:00:00,
2013-05-03 17:10:00,66.2,55.3,30.18,SW,222,1.0,1.0,68,0.00,,,0.00,Wunderground v.1.15,2013-05-03 21:10:00,
2013-05-03 17:20:00,65.8,54.9,30.18,ENE,78,0.0,0.0,68,0.00,,,0.00,Wunderground v.1.15,2013-05-03 21:20:00,
2013-05-03 17:30:00,65.5,54.7,30.18,NW,315,1.0,1.0,68,0.00,,,0.00,Wunderground v.1.15,2013-05-03 21:30:00,
2013-05-03 17:40:00,65.5,54.7,30.18,WNW,290,0.0,0.0,68,0.00,,,0.00,Wunderground v.1.15,2013-05-03 21:40:00,
2013-05-03 17:50:00,65.4,54.2,30.18,SW,222,0.0,0.0,67,0.00,,,0.00,Wunderground v.1.15,2013-05-03 21:50:00,
2013-05-03 18:00:00,65.2,53.1,30.18,South,178,1.0,1.0,65,0.00,,,0.00,Wunderground v.1.15,2013-05-03 22:00:00,
2013-05-03 18:10:00,65.0,52.5,30.18,South,173,0.0,0.0,64,0.00,,,0.00,Wunderground v.1.15,2013-05-03 22:10:00,
2013-05-03 18:20:00,64.7,51.8,30.18,SW,222,0.0,0.0,63,0.00,,,0.00,Wunderground v.1.15,2013-05-03 22:20:00,